Airfield :







YOU CAN JOIN US ON...

 
LOGIN :

Register | Disclaimer

   EN    FR    IT 

 









Legend :    VFR   Marginal VFR   IFR   Intensive IFR   Very Intensive IFR
Visi :
Ceiling :
>= 8 km
>= 3000ft
5 to 8 km
1000 to 3000 ft
1500m to 5 km
500 to 1000 ft
800 to 1500m
200 to 500 ft
< 800m
< 200 ft
Symbols :   Thunderstorms  Fog  Heavy snow  Heavy precipitations  Wind > 20 kt






- Airport Elevation : 160 ft
- IATA code : YYG


CYYG - Charlottetown

CURRENT METAR :
  • 211400Z 19006KT 15SM FEW018 FEW150 SCT240 11/08 A3015 RMK SC1AC1CI2 SLP212

EXPIRED METARs :
  • 211300Z 00000KT 15SM VCFG FEW150 FEW300 09/07 A3013 RMK AC1CI1 CI TR SLP206
  • 211236Z 15003KT 15SM VCFG FEW001 BKN180 07/07 A3013 RMK SF1AC5 SF TR SLP205
  • 211200Z 11002KT 15SM BKN180 06/06 A3013 RMK AC7 SLP206

TAF TAF CYYG
Valid from the 21 at 12:00 until the 22 at 00:00 UTC


211138Z 2112/2124 VRB03KT P6SM BKN140
FM211600 23006KT P6SM SCT100 RMK NXT FCST BY 211800Z



MET'MAP, your aeronautical weather chart ! - Copyright ORBIFLY December 2007 - Disclaimer

ORBIFLY MET'MAP TEAM :

Programming & Development : Alexandra Zaïnal
Concept & Development : Baudouin d'Aumeries
Co-Development & Prog : Marc-Olivier Méhu
Technical & hardware support : Manuel Goepfert

Contact : metmap@orbifly.com




SOURCES & CREDITS :

   NOAA